createdAt,value
2023-02-12T12:59:27.303Z,71.17
2023-02-12T13:00:38.100Z,69.53
2023-02-12T13:01:54.907Z,69.30
2023-02-12T13:03:05.354Z,70.52
2023-02-12T13:04:40.767Z,68.40
2023-02-12T13:05:51.231Z,67.47
2023-02-12T13:07:03.294Z,68.73
2023-02-12T13:08:33.811Z,71.09
2023-02-12T13:10:09.540Z,68.09
2023-02-12T13:11:33.367Z,65.49
2023-02-12T13:12:40.936Z,64.39
2023-02-12T13:13:47.292Z,61.94
2023-02-12T13:14:57.716Z,60.29
2023-02-12T13:16:21.619Z,59.43
2023-02-12T13:17:45.985Z,60.23
2023-02-12T13:19:29.375Z,59.83
2023-02-12T13:20:47.416Z,59.09
2023-02-12T13:21:58.916Z,58.73
2023-02-12T13:23:07.491Z,57.89
2023-02-12T13:24:30.171Z,61.63
2023-02-12T13:25:42.549Z,61.38
2023-02-12T13:26:53.021Z,62.68
2023-02-12T13:27:56.504Z,65.19
2023-02-12T13:29:09.893Z,65.94
2023-02-12T13:30:14.263Z,68.00
2023-02-12T13:31:35.736Z,66.86
2023-02-12T13:32:43.447Z,67.08
2023-02-12T13:33:50.290Z,64.24
2023-02-12T13:34:54.414Z,61.93
2023-02-12T13:36:00.290Z,63.82
2023-02-12T13:37:04.117Z,65.82
2023-02-12T13:38:08.683Z,66.80
2023-02-12T13:39:41.593Z,68.62
2023-02-12T13:40:43.210Z,67.08
2023-02-12T13:41:54.054Z,66.26
2023-02-12T13:43:00.032Z,65.17
2023-02-12T13:44:26.275Z,66.31
2023-02-12T13:45:33.607Z,62.55
2023-02-12T13:47:12.681Z,60.47
2023-02-12T13:48:32.659Z,60.76
2023-02-12T13:49:52.412Z,60.68
2023-02-12T13:51:01.350Z,58.82
2023-02-12T13:52:10.553Z,57.49
2023-02-12T13:53:22.905Z,57.10
2023-02-12T13:55:12.607Z,59.29
2023-02-12T13:56:29.052Z,57.14
2023-02-12T13:57:30.602Z,58.15
2023-02-12T13:58:35.052Z,59.42
2023-02-12T13:59:36.462Z,62.27
2023-02-12T14:00:50.644Z,63.50
2023-02-12T14:01:52.960Z,62.62
2023-02-12T14:02:54.452Z,62.74
2023-02-12T14:03:55.840Z,59.28
2023-02-12T14:05:01.225Z,57.17
2023-02-12T14:06:16.336Z,59.57
2023-02-12T14:07:19.462Z,61.06
2023-02-12T14:08:42.278Z,62.46
2023-02-12T14:09:59.785Z,66.55
2023-02-12T14:11:10.590Z,65.86
2023-02-12T14:12:27.267Z,64.97
2023-02-12T14:13:34.053Z,65.26
2023-02-12T14:14:40.742Z,65.93
2023-02-12T14:15:45.037Z,65.47
2023-02-12T14:16:46.666Z,66.40
2023-02-12T14:18:04.025Z,66.37
2023-02-12T14:20:03.265Z,66.25
2023-02-12T14:21:13.461Z,67.56
2023-02-12T14:22:35.041Z,67.12
2023-02-12T14:23:36.831Z,66.48
2023-02-12T14:24:38.163Z,65.30
2023-02-12T14:25:46.859Z,63.12
2023-02-12T14:26:48.484Z,61.59
2023-02-12T14:28:06.507Z,63.33
2023-02-12T14:29:21.098Z,63.81
2023-02-12T14:30:33.995Z,66.36
2023-02-12T14:31:37.656Z,67.13
2023-02-12T14:32:44.797Z,66.93
2023-02-12T14:33:48.940Z,66.73
2023-02-12T14:34:51.741Z,67.12
2023-02-12T14:36:32.188Z,68.25
2023-02-12T14:37:37.996Z,66.28
2023-02-12T14:38:47.384Z,65.70
2023-02-12T14:39:49.436Z,65.26
2023-02-12T14:40:52.564Z,62.32
2023-02-12T14:42:14.943Z,61.55
2023-02-12T14:43:56.823Z,61.09
2023-02-12T14:44:58.815Z,61.87
2023-02-12T14:46:22.094Z,60.09
2023-02-12T14:47:29.743Z,58.39
2023-02-12T14:48:52.207Z,58.78
2023-02-12T14:49:55.800Z,59.02
2023-02-12T14:50:57.664Z,57.04
2023-02-12T14:52:06.638Z,60.07
2023-02-12T14:53:35.364Z,57.33
2023-02-12T14:54:50.132Z,57.94
2023-02-12T14:55:52.490Z,56.56
2023-02-12T14:56:55.583Z,55.23
2023-02-12T14:58:00.256Z,55.02
2023-02-12T14:59:03.840Z,55.17
2023-02-12T15:00:23.743Z,56.73
2023-02-12T15:01:36.580Z,55.93
2023-02-12T15:02:41.703Z,55.39
2023-02-12T15:03:49.270Z,56.89
2023-02-12T15:04:52.933Z,58.19
2023-02-12T15:06:25.067Z,58.07
2023-02-12T15:07:37.222Z,57.99
2023-02-12T15:08:48.759Z,58.72
2023-02-12T15:10:15.353Z,59.26
2023-02-12T15:11:45.052Z,58.95
2023-02-12T15:12:57.856Z,59.32
2023-02-12T15:14:23.755Z,58.99
2023-02-12T15:15:33.824Z,57.15
2023-02-12T15:16:47.054Z,56.14
2023-02-12T15:17:59.218Z,55.52
2023-02-12T15:19:25.524Z,54.89
2023-02-12T15:20:37.538Z,59.69
2023-02-12T15:21:39.316Z,60.96
2023-02-12T15:22:41.245Z,60.36
2023-02-12T15:23:44.402Z,59.30
2023-02-12T15:24:47.014Z,61.99
2023-02-12T15:25:50.834Z,59.92
2023-02-12T15:26:58.126Z,59.36
2023-02-12T15:28:02.701Z,60.04
2023-02-12T15:29:04.710Z,59.13
2023-02-12T15:30:08.734Z,58.00
2023-02-12T15:31:16.825Z,57.56
2023-02-12T15:32:29.801Z,57.09
2023-02-12T15:33:33.896Z,56.44
2023-02-12T15:34:40.027Z,56.12
2023-02-12T15:35:45.115Z,58.85
2023-02-12T15:36:46.561Z,57.73
2023-02-12T15:37:49.559Z,56.71
2023-02-12T15:39:06.741Z,58.75
2023-02-12T15:40:14.827Z,57.24
2023-02-12T15:41:38.496Z,56.61
2023-02-12T15:42:42.415Z,56.95
2023-02-12T15:43:43.808Z,56.95
2023-02-12T15:44:45.210Z,56.86
2023-02-12T15:45:51.811Z,59.05
2023-02-12T15:46:58.465Z,57.57
2023-02-12T15:48:09.103Z,57.48
2023-02-12T15:49:22.188Z,57.76
2023-02-12T15:50:24.234Z,57.65
2023-02-12T15:51:41.474Z,57.56
2023-02-12T15:52:46.492Z,58.77
2023-02-12T15:53:48.220Z,58.99
2023-02-12T15:54:49.820Z,58.34
2023-02-12T15:55:52.031Z,57.97
2023-02-12T15:56:54.788Z,58.89
2023-02-12T15:57:59.913Z,58.81
2023-02-12T15:59:02.899Z,58.27
2023-02-12T16:00:09.613Z,58.10
2023-02-12T16:01:18.995Z,57.87
2023-02-12T16:02:29.951Z,57.48
2023-02-12T16:03:32.979Z,58.70
2023-02-12T16:04:40.534Z,59.55
2023-02-12T16:05:42.102Z,59.07
2023-02-12T16:06:43.701Z,59.08
2023-02-12T16:07:46.618Z,60.52
2023-02-12T16:09:17.906Z,60.63
2023-02-12T16:10:20.730Z,60.54
2023-02-12T16:11:24.069Z,60.69
2023-02-12T16:12:31.020Z,60.33
2023-02-12T16:13:34.743Z,60.53
2023-02-12T16:14:47.144Z,60.47
2023-02-12T16:16:04.680Z,61.19
2023-02-12T16:17:27.517Z,60.88
2023-02-12T16:18:29.170Z,60.88
2023-02-12T16:19:36.916Z,61.21
2023-02-12T16:20:38.378Z,61.45
2023-02-12T16:21:39.942Z,61.27
2023-02-12T16:22:44.136Z,62.99
2023-02-12T16:23:48.734Z,63.21
2023-02-12T16:24:52.436Z,63.56
2023-02-12T16:25:55.427Z,63.95
2023-02-12T16:27:01.877Z,64.51
2023-02-12T16:28:20.768Z,65.02
2023-02-12T16:29:22.220Z,66.89
2023-02-12T16:30:28.272Z,67.21
